Gordon Reid — CGBR — position and weather

sailwx.info

Track history (hours):
 
Tides and Currents Weather Stations Pressure Air Temp Water Temp Dewpoint Dewpoint Depression Visibility Wind Speed Wind Dir Waves Ship Positions

Gordon Reid

Last reported at 2014-Sep-14 04:16 UTC. Time now 2014-Sep-17 19:38 UTC.
Position N 51°23' W 127°46'.

Length 49.95 m; beam 11 m; draft 5.4 m.

Type: SAR. MMSI: 316094000.

Date/timePositionNaut miles runAvg speedWind from/ knotsBaromVisibWave heightAir tempDewpointWater temp
2014-Sep-14 04:16N 51°23' W 127°46'5 7.3
2014-Sep-14 03:33N 51°19' W 127°52'1110.7
2014-Sep-14 02:32N 51°08' W 127°51'1110.6
2014-Sep-14 01:31N 50°58' W 127°45'17 4.0
2014-Sep-13 21:11N 50°43' W 127°29'4 6.0
2014-Sep-13 20:33N 50°47' W 127°31'1111.1
2014-Sep-13 19:33N 50°51' W 127°47'1 1.3
2014-Sep-13 18:33N 50°51' W 127°49'2 0.8
2014-Sep-13 16:28N 50°51' W 127°52'0 0.0
2014-Sep-13 15:28N 50°51' W 127°52'0 0.0
2014-Sep-13 14:28N 50°51' W 127°52'0 0.0
2014-Sep-13 13:28N 50°51' W 127°52'0 0.0
2014-Sep-13 12:10N 50°51' W 127°52'0 0.0
2014-Sep-13 11:28N 50°51' W 127°52'0 0.0
2014-Sep-13 10:04N 50°51' W 127°52'0 0.0
2014-Sep-13 09:16N 50°51' W 127°52'0 0.0
2014-Sep-13 08:28N 50°51' W 127°52'0 0.0
2014-Sep-13 07:28N 50°51' W 127°52'0 0.0
2014-Sep-13 06:28N 50°51' W 127°52'0 0.0
2014-Sep-13 05:16N 50°51' W 127°52'0 0.0
2014-Sep-13 01:33N 50°51' W 127°52'1 0.3
2014-Sep-12 21:34N 50°52' W 127°50'7 6.4
2014-Sep-12 20:32N 50°51' W 127°40'0 0.0
2014-Sep-12 19:32N 50°51' W 127°40'0 0.0
2014-Sep-12 18:32N 50°51' W 127°40'0 0.0
2014-Sep-12 17:32N 50°51' W 127°40'0 0.0
2014-Sep-12 16:32N 50°51' W 127°40'0 0.0
2014-Sep-12 15:32N 50°51' W 127°40'0 0.0
2014-Sep-12 14:32N 50°51' W 127°40'0 0.0
2014-Sep-12 13:32N 50°51' W 127°40'0 0.0
2014-Sep-12 12:26N 50°51' W 127°40'0 0.0
2014-Sep-12 11:32N 50°51' W 127°40'0 0.0
2014-Sep-12 10:32N 50°51' W 127°40'0 0.0
2014-Sep-12 09:32N 50°51' W 127°40'0 0.0
2014-Sep-12 08:32N 50°51' W 127°40'0 0.0
2014-Sep-12 07:32N 50°51' W 127°40'0 0.0
2014-Sep-12 06:32N 50°51' W 127°40'0 0.0
2014-Sep-12 05:32N 50°51' W 127°40'0 0.0
2014-Sep-12 04:32N 50°51' W 127°40'0 0.0
2014-Sep-12 03:32N 50°51' W 127°40'4 3.9
2014-Sep-12 02:33N 50°49' W 127°35'6 6.3
2014-Sep-12 01:31N 50°43' W 127°29'0 0.0
2014-Sep-12 00:31N 50°43' W 127°29'0 0.0
2014-Sep-11 22:19N 50°43' W 127°29'0 0.0
2014-Sep-11 21:19N 50°43' W 127°29'0 0.0
2014-Sep-11 20:31N 50°43' W 127°29'0 0.0
2014-Sep-11 19:31N 50°43' W 127°29'0 0.0
2014-Sep-11 18:25N 50°43' W 127°29'0 0.0
2014-Sep-11 15:19N 50°43' W 127°29'0 0.0
2014-Sep-11 08:19N 50°43' W 127°29'0 0.0
2014-Sep-11 02:07N 50°43' W 127°29'0 0.0
2014-Sep-11 01:25N 50°43' W 127°29'0 0.0
2014-Sep-10 23:31N 50°43' W 127°29'0 0.0
2014-Sep-10 22:19N 50°43' W 127°29'0 0.0
2014-Sep-10 21:19N 50°43' W 127°29'0 0.0
2014-Sep-10 20:25N 50°43' W 127°29'1 0.5
2014-Sep-10 18:28N 50°43' W 127°28'0 0.0
2014-Sep-10 17:16N 50°43' W 127°28'0 0.0
2014-Sep-10 16:28N 50°43' W 127°28'3 3.2
2014-Sep-10 15:33N 50°46' W 127°28'9 7.9
2014-Sep-10 14:28N 50°51' W 127°40'0 0.0
2014-Sep-10 13:28N 50°51' W 127°40'0 0.0
2014-Sep-10 12:28N 50°51' W 127°40'0 0.0
2014-Sep-10 11:28N 50°51' W 127°40'0 0.0
2014-Sep-10 10:28N 50°51' W 127°40'0 0.0
2014-Sep-10 09:28N 50°51' W 127°40'0 0.0
2014-Sep-10 08:22N 50°51' W 127°40'0 0.0
2014-Sep-10 07:28N 50°51' W 127°40'0 0.0
2014-Sep-10 06:28N 50°51' W 127°40'0 0.0
2014-Sep-10 05:28N 50°51' W 127°40'0 0.0
2014-Sep-10 04:28N 50°51' W 127°40'0 0.0
2014-Sep-10 03:28N 50°51' W 127°40'0 0.0
2014-Sep-10 02:28N 50°51' W 127°40'0 0.0
2014-Sep-10 01:28N 50°51' W 127°40'0 0.0
2014-Sep-10 00:28N 50°51' W 127°40'0 0.0
2014-Sep-09 23:28N 50°51' W 127°40'0 0.0
2014-Sep-09 22:28N 50°51' W 127°40'0 0.0
2014-Sep-09 21:28N 50°51' W 127°40'0 0.0
2014-Sep-09 20:28N 50°51' W 127°40'4 4.2
2014-Sep-09 19:33N 50°51' W 127°46'11 0.5
2014-Sep-08 20:14N 50°58' W 127°58'4 0.3
2014-Sep-08 08:33N 51°02' W 127°55'6 5.5
2014-Sep-08 07:32N 51°08' W 127°54'6 6.3
2014-Sep-08 06:33N 51°14' W 127°54'5 0.9
2014-Sep-08 00:20N 51°19' W 127°56'  
Track history (hours):
 
Tides and Currents Weather Stations Pressure Air Temp Water Temp Dewpoint Dewpoint Depression Visibility Wind Speed Wind Dir Waves Ship Positions

Gordon Reid

Last reported at 2014-Sep-14 04:16 UTC. Time now 2014-Sep-17 19:38 UTC.
Position N 51°23' W 127°46'.

Length 49.95 m; beam 11 m; draft 5.4 m.

Type: SAR. MMSI: 316094000.

Date/timePositionNaut miles runAvg speedWind from/ knotsBaromVisibWave heightAir tempDewpointWater temp
2014-Sep-14 04:16N 51°23' W 127°46'5 7.3
2014-Sep-14 03:33N 51°19' W 127°52'1110.7
2014-Sep-14 02:32N 51°08' W 127°51'1110.6
2014-Sep-14 01:31N 50°58' W 127°45'17 4.0
2014-Sep-13 21:11N 50°43' W 127°29'4 6.0
2014-Sep-13 20:33N 50°47' W 127°31'1111.1
2014-Sep-13 19:33N 50°51' W 127°47'1 1.3
2014-Sep-13 18:33N 50°51' W 127°49'2 0.8
2014-Sep-13 16:28N 50°51' W 127°52'0 0.0
2014-Sep-13 15:28N 50°51' W 127°52'0 0.0
2014-Sep-13 14:28N 50°51' W 127°52'0 0.0
2014-Sep-13 13:28N 50°51' W 127°52'0 0.0
2014-Sep-13 12:10N 50°51' W 127°52'0 0.0
2014-Sep-13 11:28N 50°51' W 127°52'0 0.0
2014-Sep-13 10:04N 50°51' W 127°52'0 0.0
2014-Sep-13 09:16N 50°51' W 127°52'0 0.0
2014-Sep-13 08:28N 50°51' W 127°52'0 0.0
2014-Sep-13 07:28N 50°51' W 127°52'0 0.0
2014-Sep-13 06:28N 50°51' W 127°52'0 0.0
2014-Sep-13 05:16N 50°51' W 127°52'0 0.0
2014-Sep-13 01:33N 50°51' W 127°52'1 0.3
2014-Sep-12 21:34N 50°52' W 127°50'7 6.4
2014-Sep-12 20:32N 50°51' W 127°40'0 0.0
2014-Sep-12 19:32N 50°51' W 127°40'0 0.0
2014-Sep-12 18:32N 50°51' W 127°40'0 0.0
2014-Sep-12 17:32N 50°51' W 127°40'0 0.0
2014-Sep-12 16:32N 50°51' W 127°40'0 0.0
2014-Sep-12 15:32N 50°51' W 127°40'0 0.0
2014-Sep-12 14:32N 50°51' W 127°40'0 0.0
2014-Sep-12 13:32N 50°51' W 127°40'0 0.0
2014-Sep-12 12:26N 50°51' W 127°40'0 0.0
2014-Sep-12 11:32N 50°51' W 127°40'0 0.0
2014-Sep-12 10:32N 50°51' W 127°40'0 0.0
2014-Sep-12 09:32N 50°51' W 127°40'0 0.0
2014-Sep-12 08:32N 50°51' W 127°40'0 0.0
2014-Sep-12 07:32N 50°51' W 127°40'0 0.0
2014-Sep-12 06:32N 50°51' W 127°40'0 0.0
2014-Sep-12 05:32N 50°51' W 127°40'0 0.0
2014-Sep-12 04:32N 50°51' W 127°40'0 0.0
2014-Sep-12 03:32N 50°51' W 127°40'4 3.9
2014-Sep-12 02:33N 50°49' W 127°35'6 6.3
2014-Sep-12 01:31N 50°43' W 127°29'0 0.0
2014-Sep-12 00:31N 50°43' W 127°29'0 0.0
2014-Sep-11 22:19N 50°43' W 127°29'0 0.0
2014-Sep-11 21:19N 50°43' W 127°29'0 0.0
2014-Sep-11 20:31N 50°43' W 127°29'0 0.0
2014-Sep-11 19:31N 50°43' W 127°29'0 0.0
2014-Sep-11 18:25N 50°43' W 127°29'0 0.0
2014-Sep-11 15:19N 50°43' W 127°29'0 0.0
2014-Sep-11 08:19N 50°43' W 127°29'0 0.0
2014-Sep-11 02:07N 50°43' W 127°29'0 0.0
2014-Sep-11 01:25N 50°43' W 127°29'0 0.0
2014-Sep-10 23:31N 50°43' W 127°29'0 0.0
2014-Sep-10 22:19N 50°43' W 127°29'0 0.0
2014-Sep-10 21:19N 50°43' W 127°29'0 0.0
2014-Sep-10 20:25N 50°43' W 127°29'1 0.5
2014-Sep-10 18:28N 50°43' W 127°28'0 0.0
2014-Sep-10 17:16N 50°43' W 127°28'0 0.0
2014-Sep-10 16:28N 50°43' W 127°28'3 3.2
2014-Sep-10 15:33N 50°46' W 127°28'9 7.9
2014-Sep-10 14:28N 50°51' W 127°40'0 0.0
2014-Sep-10 13:28N 50°51' W 127°40'0 0.0
2014-Sep-10 12:28N 50°51' W 127°40'0 0.0
2014-Sep-10 11:28N 50°51' W 127°40'0 0.0
2014-Sep-10 10:28N 50°51' W 127°40'0 0.0
2014-Sep-10 09:28N 50°51' W 127°40'0 0.0
2014-Sep-10 08:22N 50°51' W 127°40'0 0.0
2014-Sep-10 07:28N 50°51' W 127°40'0 0.0
2014-Sep-10 06:28N 50°51' W 127°40'0 0.0
2014-Sep-10 05:28N 50°51' W 127°40'0 0.0
2014-Sep-10 04:28N 50°51' W 127°40'0 0.0
2014-Sep-10 03:28N 50°51' W 127°40'0 0.0
2014-Sep-10 02:28N 50°51' W 127°40'0 0.0
2014-Sep-10 01:28N 50°51' W 127°40'0 0.0
2014-Sep-10 00:28N 50°51' W 127°40'0 0.0
2014-Sep-09 23:28N 50°51' W 127°40'0 0.0
2014-Sep-09 22:28N 50°51' W 127°40'0 0.0
2014-Sep-09 21:28N 50°51' W 127°40'0 0.0
2014-Sep-09 20:28N 50°51' W 127°40'4 4.2
2014-Sep-09 19:33N 50°51' W 127°46'11 0.5
2014-Sep-08 20:14N 50°58' W 127°58'4 0.3
2014-Sep-08 08:33N 51°02' W 127°55'6 5.5
2014-Sep-08 07:32N 51°08' W 127°54'6 6.3
2014-Sep-08 06:33N 51°14' W 127°54'5 0.9
2014-Sep-08 00:20N 51°19' W 127°56'  

Dump ship's entire track history